Terminal Aerodrome Forecast
Issued by NWS

Home | Current Version | Previous Version | Text Only | Print | Product List | Glossary On
Versions: 1 2 3 4 5 6 7 8 9 10 11 12 13
000
FTUS45 KRIW 261743
TAFLND
TAF
KLND 261743Z 2618/2718 16007KT P6SM -RA SCT014 OVC040
      TEMPO 2618/2620 4SM -RA OVC014
     FM262000 02008KT 5SM -SHRA VCTS BKN030CB
     FM270000 02008KT 5SM -RA OVC020
     FM270400 34006KT P6SM VCSH SCT015 OVC025
     FM271500 VRB04KT P6SM BKN060=

USA.gov is the U.S. government's official web portal to all federal, state and local government web resources and services.